sensor_id;sensor_type;location;lat;lon;timestamp;temperature;humidity
30308;DHT22;17114;52.314;8.910;2023-12-14T00:01:54;4.70;99.90
30308;DHT22;17114;52.314;8.910;2023-12-14T00:04:21;4.70;99.90
30308;DHT22;17114;52.314;8.910;2023-12-14T00:06:48;4.70;99.90
30308;DHT22;17114;52.314;8.910;2023-12-14T00:09:15;4.70;99.90
30308;DHT22;17114;52.314;8.910;2023-12-14T00:11:42;4.70;99.90
30308;DHT22;17114;52.314;8.910;2023-12-14T00:14:09;4.70;99.90
30308;DHT22;17114;52.314;8.910;2023-12-14T00:16:36;4.70;99.90
30308;DHT22;17114;52.314;8.910;2023-12-14T00:19:03;4.70;99.90
30308;DHT22;17114;52.314;8.910;2023-12-14T00:21:30;4.60;99.90
30308;DHT22;17114;52.314;8.910;2023-12-14T00:23:57;4.70;99.90
30308;DHT22;17114;52.314;8.910;2023-12-14T00:26:24;4.60;99.90
30308;DHT22;17114;52.314;8.910;2023-12-14T00:28:50;4.60;99.90
30308;DHT22;17114;52.314;8.910;2023-12-14T00:31:27;4.50;99.90
30308;DHT22;17114;52.314;8.910;2023-12-14T00:33:54;4.60;99.90
30308;DHT22;17114;52.314;8.910;2023-12-14T00:36:20;4.50;99.90
30308;DHT22;17114;52.314;8.910;2023-12-14T00:38:47;4.50;99.90
30308;DHT22;17114;52.314;8.910;2023-12-14T00:41:14;4.50;99.90
30308;DHT22;17114;52.314;8.910;2023-12-14T00:43:41;4.40;99.90
30308;DHT22;17114;52.314;8.910;2023-12-14T00:46:08;4.50;99.90
30308;DHT22;17114;52.314;8.910;2023-12-14T00:48:36;4.50;99.90
30308;DHT22;17114;52.314;8.910;2023-12-14T00:51:03;4.60;99.90
30308;DHT22;17114;52.314;8.910;2023-12-14T00:53:30;4.50;99.90
30308;DHT22;17114;52.314;8.910;2023-12-14T00:55:57;4.60;99.90
30308;DHT22;17114;52.314;8.910;2023-12-14T00:58:23;4.50;99.90
30308;DHT22;17114;52.314;8.910;2023-12-14T01:00:50;4.40;99.90
30308;DHT22;17114;52.314;8.910;2023-12-14T01:03:17;4.60;99.90
30308;DHT22;17114;52.314;8.910;2023-12-14T01:05:44;4.40;99.90
30308;DHT22;17114;52.314;8.910;2023-12-14T01:08:11;4.50;99.90
30308;DHT22;17114;52.314;8.910;2023-12-14T01:10:38;4.40;99.90
30308;DHT22;17114;52.314;8.910;2023-12-14T01:13:05;4.40;99.90
30308;DHT22;17114;52.314;8.910;2023-12-14T01:15:32;4.50;99.90
30308;DHT22;17114;52.314;8.910;2023-12-14T01:17:59;4.30;99.90
30308;DHT22;17114;52.314;8.910;2023-12-14T01:20:26;4.50;99.90
30308;DHT22;17114;52.314;8.910;2023-12-14T01:22:52;4.30;99.90
30308;DHT22;17114;52.314;8.910;2023-12-14T01:25:19;4.30;99.90
30308;DHT22;17114;52.314;8.910;2023-12-14T01:27:46;4.30;99.90
30308;DHT22;17114;52.314;8.910;2023-12-14T01:30:13;4.30;99.90
30308;DHT22;17114;52.314;8.910;2023-12-14T01:32:40;4.40;99.90
30308;DHT22;17114;52.314;8.910;2023-12-14T01:35:07;4.20;99.90
30308;DHT22;17114;52.314;8.910;2023-12-14T01:37:34;4.20;99.90
30308;DHT22;17114;52.314;8.910;2023-12-14T01:40:01;4.20;99.90
30308;DHT22;17114;52.314;8.910;2023-12-14T01:42:28;4.20;99.90
30308;DHT22;17114;52.314;8.910;2023-12-14T01:44:55;4.10;99.90
30308;DHT22;17114;52.314;8.910;2023-12-14T01:47:22;4.10;99.90
30308;DHT22;17114;52.314;8.910;2023-12-14T01:49:49;4.20;99.90
30308;DHT22;17114;52.314;8.910;2023-12-14T01:52:16;4.10;99.90
30308;DHT22;17114;52.314;8.910;2023-12-14T01:54:43;4.10;99.90
30308;DHT22;17114;52.314;8.910;2023-12-14T01:57:09;4.10;99.90
30308;DHT22;17114;52.314;8.910;2023-12-14T01:59:36;4.10;99.90
30308;DHT22;17114;52.314;8.910;2023-12-14T02:02:03;4.10;99.90
30308;DHT22;17114;52.314;8.910;2023-12-14T02:04:32;4.00;99.90
30308;DHT22;17114;52.314;8.910;2023-12-14T02:06:59;4.00;99.90
30308;DHT22;17114;52.314;8.910;2023-12-14T02:09:26;4.10;99.90
30308;DHT22;17114;52.314;8.910;2023-12-14T02:11:53;4.20;99.90
30308;DHT22;17114;52.314;8.910;2023-12-14T02:14:21;4.00;99.90
30308;DHT22;17114;52.314;8.910;2023-12-14T02:16:48;4.10;99.90
30308;DHT22;17114;52.314;8.910;2023-12-14T02:19:15;4.00;99.90
30308;DHT22;17114;52.314;8.910;2023-12-14T02:21:42;4.10;99.90
30308;DHT22;17114;52.314;8.910;2023-12-14T02:24:09;4.10;99.90
30308;DHT22;17114;52.314;8.910;2023-12-14T02:26:36;3.90;99.90
30308;DHT22;17114;52.314;8.910;2023-12-14T02:29:03;4.20;99.90
30308;DHT22;17114;52.314;8.910;2023-12-14T02:31:30;4.00;99.90
30308;DHT22;17114;52.314;8.910;2023-12-14T02:33:57;4.00;99.90
30308;DHT22;17114;52.314;8.910;2023-12-14T02:36:24;3.90;99.90
30308;DHT22;17114;52.314;8.910;2023-12-14T02:38:50;4.00;99.90
30308;DHT22;17114;52.314;8.910;2023-12-14T02:41:17;3.90;99.90
30308;DHT22;17114;52.314;8.910;2023-12-14T02:43:44;4.00;99.90
30308;DHT22;17114;52.314;8.910;2023-12-14T02:46:11;4.00;99.90
30308;DHT22;17114;52.314;8.910;2023-12-14T02:48:42;4.00;99.90
30308;DHT22;17114;52.314;8.910;2023-12-14T02:51:13;4.00;99.90
30308;DHT22;17114;52.314;8.910;2023-12-14T02:53:41;4.00;99.90
30308;DHT22;17114;52.314;8.910;2023-12-14T02:56:09;4.00;99.90
30308;DHT22;17114;52.314;8.910;2023-12-14T02:58:37;4.10;99.90
30308;DHT22;17114;52.314;8.910;2023-12-14T03:01:05;4.10;99.90
30308;DHT22;17114;52.314;8.910;2023-12-14T03:03:32;4.00;99.90
30308;DHT22;17114;52.314;8.910;2023-12-14T03:05:59;4.00;99.90
30308;DHT22;17114;52.314;8.910;2023-12-14T03:08:27;4.00;99.90
30308;DHT22;17114;52.314;8.910;2023-12-14T03:10:54;4.00;99.90
30308;DHT22;17114;52.314;8.910;2023-12-14T03:13:20;4.00;99.90
30308;DHT22;17114;52.314;8.910;2023-12-14T03:15:47;3.90;99.90
30308;DHT22;17114;52.314;8.910;2023-12-14T03:18:16;4.00;99.90
30308;DHT22;17114;52.314;8.910;2023-12-14T03:20:43;4.00;99.90
30308;DHT22;17114;52.314;8.910;2023-12-14T03:23:09;4.00;99.90
30308;DHT22;17114;52.314;8.910;2023-12-14T03:25:36;4.10;99.90
30308;DHT22;17114;52.314;8.910;2023-12-14T03:28:03;3.90;99.90
30308;DHT22;17114;52.314;8.910;2023-12-14T03:30:30;3.80;99.90
30308;DHT22;17114;52.314;8.910;2023-12-14T03:32:57;3.90;99.90
30308;DHT22;17114;52.314;8.910;2023-12-14T03:35:24;3.90;99.90
30308;DHT22;17114;52.314;8.910;2023-12-14T03:37:51;3.90;99.90
30308;DHT22;17114;52.314;8.910;2023-12-14T03:40:18;3.90;99.90
30308;DHT22;17114;52.314;8.910;2023-12-14T03:42:45;3.80;99.90
30308;DHT22;17114;52.314;8.910;2023-12-14T03:45:12;3.90;99.90
30308;DHT22;17114;52.314;8.910;2023-12-14T03:47:39;3.90;99.90
30308;DHT22;17114;52.314;8.910;2023-12-14T03:50:06;3.90;99.90
30308;DHT22;17114;52.314;8.910;2023-12-14T03:52:33;3.90;99.90
30308;DHT22;17114;52.314;8.910;2023-12-14T03:55:01;3.90;99.90
30308;DHT22;17114;52.314;8.910;2023-12-14T03:57:28;3.90;99.90
30308;DHT22;17114;52.314;8.910;2023-12-14T03:59:55;4.00;99.90
30308;DHT22;17114;52.314;8.910;2023-12-14T04:02:22;3.90;99.90
30308;DHT22;17114;52.314;8.910;2023-12-14T04:04:49;3.90;99.90
30308;DHT22;17114;52.314;8.910;2023-12-14T04:07:16;3.90;99.90
30308;DHT22;17114;52.314;8.910;2023-12-14T04:09:44;3.90;99.90
30308;DHT22;17114;52.314;8.910;2023-12-14T04:12:12;4.00;99.90
30308;DHT22;17114;52.314;8.910;2023-12-14T04:14:39;3.90;99.90
30308;DHT22;17114;52.314;8.910;2023-12-14T04:17:06;4.00;99.90
30308;DHT22;17114;52.314;8.910;2023-12-14T04:19:33;3.90;99.90
30308;DHT22;17114;52.314;8.910;2023-12-14T04:21:59;3.90;99.90
30308;DHT22;17114;52.314;8.910;2023-12-14T04:24:26;4.00;99.90
30308;DHT22;17114;52.314;8.910;2023-12-14T04:26:53;4.00;99.90
30308;DHT22;17114;52.314;8.910;2023-12-14T04:29:20;4.00;99.90
30308;DHT22;17114;52.314;8.910;2023-12-14T04:31:47;4.00;99.90
30308;DHT22;17114;52.314;8.910;2023-12-14T04:34:14;4.00;99.90
30308;DHT22;17114;52.314;8.910;2023-12-14T04:36:43;3.90;99.90
30308;DHT22;17114;52.314;8.910;2023-12-14T04:39:10;3.90;99.90
30308;DHT22;17114;52.314;8.910;2023-12-14T04:41:37;3.80;99.90
30308;DHT22;17114;52.314;8.910;2023-12-14T04:44:04;3.70;99.90
30308;DHT22;17114;52.314;8.910;2023-12-14T04:46:31;3.80;99.90
30308;DHT22;17114;52.314;8.910;2023-12-14T04:48:58;3.80;99.90
30308;DHT22;17114;52.314;8.910;2023-12-14T04:51:25;3.80;99.90
30308;DHT22;17114;52.314;8.910;2023-12-14T04:53:52;3.80;99.90
30308;DHT22;17114;52.314;8.910;2023-12-14T04:56:19;3.80;99.90
30308;DHT22;17114;52.314;8.910;2023-12-14T04:58:46;3.80;99.90
30308;DHT22;17114;52.314;8.910;2023-12-14T05:01:13;3.80;99.90
30308;DHT22;17114;52.314;8.910;2023-12-14T05:03:41;3.80;99.90
30308;DHT22;17114;52.314;8.910;2023-12-14T05:06:08;3.80;99.90
30308;DHT22;17114;52.314;8.910;2023-12-14T05:08:35;3.80;99.90
30308;DHT22;17114;52.314;8.910;2023-12-14T05:11:02;3.80;99.90
30308;DHT22;17114;52.314;8.910;2023-12-14T05:13:30;3.80;99.90
30308;DHT22;17114;52.314;8.910;2023-12-14T05:15:57;3.90;99.90
30308;DHT22;17114;52.314;8.910;2023-12-14T05:18:27;3.80;99.90
30308;DHT22;17114;52.314;8.910;2023-12-14T05:20:55;3.80;99.90
30308;DHT22;17114;52.314;8.910;2023-12-14T05:23:22;3.80;99.90
30308;DHT22;17114;52.314;8.910;2023-12-14T05:25:50;3.80;99.90
30308;DHT22;17114;52.314;8.910;2023-12-14T05:28:17;3.80;99.90
30308;DHT22;17114;52.314;8.910;2023-12-14T05:30:44;3.70;99.90
30308;DHT22;17114;52.314;8.910;2023-12-14T05:33:11;3.70;99.90
30308;DHT22;17114;52.314;8.910;2023-12-14T05:35:39;3.70;99.90
30308;DHT22;17114;52.314;8.910;2023-12-14T05:38:06;3.70;99.90
30308;DHT22;17114;52.314;8.910;2023-12-14T05:40:33;3.70;99.90
30308;DHT22;17114;52.314;8.910;2023-12-14T05:43:00;3.70;99.90
30308;DHT22;17114;52.314;8.910;2023-12-14T05:45:27;3.60;99.90
30308;DHT22;17114;52.314;8.910;2023-12-14T05:47:53;3.70;99.90
30308;DHT22;17114;52.314;8.910;2023-12-14T05:50:20;3.70;99.90
30308;DHT22;17114;52.314;8.910;2023-12-14T05:52:49;3.70;99.90
30308;DHT22;17114;52.314;8.910;2023-12-14T05:55:16;3.70;99.90
30308;DHT22;17114;52.314;8.910;2023-12-14T05:57:48;3.70;99.90
30308;DHT22;17114;52.314;8.910;2023-12-14T06:00:15;3.70;99.90
30308;DHT22;17114;52.314;8.910;2023-12-14T06:02:42;3.70;99.90
30308;DHT22;17114;52.314;8.910;2023-12-14T06:05:10;3.60;99.90
30308;DHT22;17114;52.314;8.910;2023-12-14T06:07:38;3.70;99.90
30308;DHT22;17114;52.314;8.910;2023-12-14T06:10:05;3.70;99.90
30308;DHT22;17114;52.314;8.910;2023-12-14T06:12:33;3.60;99.90
30308;DHT22;17114;52.314;8.910;2023-12-14T06:15:00;3.70;99.90
30308;DHT22;17114;52.314;8.910;2023-12-14T06:17:27;3.80;99.90
30308;DHT22;17114;52.314;8.910;2023-12-14T06:19:57;3.70;99.90
30308;DHT22;17114;52.314;8.910;2023-12-14T06:22:24;3.80;99.90
30308;DHT22;17114;52.314;8.910;2023-12-14T06:24:51;3.80;99.90
30308;DHT22;17114;52.314;8.910;2023-12-14T06:27:17;3.60;99.90
30308;DHT22;17114;52.314;8.910;2023-12-14T06:29:44;3.70;99.90
30308;DHT22;17114;52.314;8.910;2023-12-14T06:32:12;3.60;99.90
30308;DHT22;17114;52.314;8.910;2023-12-14T06:34:39;3.60;99.90
30308;DHT22;17114;52.314;8.910;2023-12-14T06:37:06;3.70;99.90
30308;DHT22;17114;52.314;8.910;2023-12-14T06:39:33;3.70;99.90
30308;DHT22;17114;52.314;8.910;2023-12-14T06:42:00;3.70;99.90
30308;DHT22;17114;52.314;8.910;2023-12-14T06:44:27;3.70;99.90
30308;DHT22;17114;52.314;8.910;2023-12-14T06:46:54;3.70;99.90
30308;DHT22;17114;52.314;8.910;2023-12-14T06:49:21;3.70;99.90
30308;DHT22;17114;52.314;8.910;2023-12-14T06:51:48;3.70;99.90
30308;DHT22;17114;52.314;8.910;2023-12-14T06:54:15;3.70;99.90
30308;DHT22;17114;52.314;8.910;2023-12-14T06:56:42;3.70;99.90
30308;DHT22;17114;52.314;8.910;2023-12-14T06:59:09;3.50;99.90
30308;DHT22;17114;52.314;8.910;2023-12-14T07:01:36;3.60;99.90
30308;DHT22;17114;52.314;8.910;2023-12-14T07:04:03;3.60;99.90
30308;DHT22;17114;52.314;8.910;2023-12-14T07:06:30;3.60;99.90
30308;DHT22;17114;52.314;8.910;2023-12-14T07:08:57;3.60;99.90
30308;DHT22;17114;52.314;8.910;2023-12-14T07:11:24;3.60;99.90
30308;DHT22;17114;52.314;8.910;2023-12-14T07:13:51;3.60;99.90
30308;DHT22;17114;52.314;8.910;2023-12-14T07:16:18;3.70;99.90
30308;DHT22;17114;52.314;8.910;2023-12-14T07:18:45;3.70;99.90
30308;DHT22;17114;52.314;8.910;2023-12-14T07:21:12;3.70;99.90
30308;DHT22;17114;52.314;8.910;2023-12-14T07:23:39;3.70;99.90
30308;DHT22;17114;52.314;8.910;2023-12-14T07:26:06;3.80;99.90
30308;DHT22;17114;52.314;8.910;2023-12-14T07:28:34;3.70;99.90
30308;DHT22;17114;52.314;8.910;2023-12-14T07:31:01;3.70;99.90
30308;DHT22;17114;52.314;8.910;2023-12-14T07:33:28;3.50;99.90
30308;DHT22;17114;52.314;8.910;2023-12-14T07:35:55;3.70;99.90
30308;DHT22;17114;52.314;8.910;2023-12-14T07:38:22;3.80;99.90
30308;DHT22;17114;52.314;8.910;2023-12-14T07:40:53;3.70;99.90
30308;DHT22;17114;52.314;8.910;2023-12-14T07:43:20;3.70;99.90
30308;DHT22;17114;52.314;8.910;2023-12-14T07:45:47;3.70;99.90
30308;DHT22;17114;52.314;8.910;2023-12-14T07:48:14;3.70;99.90
30308;DHT22;17114;52.314;8.910;2023-12-14T07:50:41;3.70;99.90
30308;DHT22;17114;52.314;8.910;2023-12-14T07:53:08;3.70;99.90
30308;DHT22;17114;52.314;8.910;2023-12-14T07:55:35;3.70;99.90
30308;DHT22;17114;52.314;8.910;2023-12-14T07:58:02;3.60;99.90
30308;DHT22;17114;52.314;8.910;2023-12-14T08:00:32;3.60;99.90
30308;DHT22;17114;52.314;8.910;2023-12-14T08:02:59;3.70;99.90
30308;DHT22;17114;52.314;8.910;2023-12-14T08:05:26;3.60;99.90
30308;DHT22;17114;52.314;8.910;2023-12-14T08:07:53;3.70;99.90
30308;DHT22;17114;52.314;8.910;2023-12-14T08:10:20;3.70;99.90
30308;DHT22;17114;52.314;8.910;2023-12-14T08:12:47;3.70;99.90
30308;DHT22;17114;52.314;8.910;2023-12-14T08:15:14;3.70;99.90
30308;DHT22;17114;52.314;8.910;2023-12-14T08:17:41;3.70;99.90
30308;DHT22;17114;52.314;8.910;2023-12-14T08:20:09;3.70;99.90
30308;DHT22;17114;52.314;8.910;2023-12-14T08:22:38;3.70;99.90
30308;DHT22;17114;52.314;8.910;2023-12-14T08:25:12;3.60;99.90
30308;DHT22;17114;52.314;8.910;2023-12-14T08:27:41;3.60;99.90
30308;DHT22;17114;52.314;8.910;2023-12-14T08:30:09;3.60;99.90
30308;DHT22;17114;52.314;8.910;2023-12-14T08:32:37;3.60;99.90
30308;DHT22;17114;52.314;8.910;2023-12-14T08:35:05;3.60;99.90
30308;DHT22;17114;52.314;8.910;2023-12-14T08:37:32;3.60;99.90
30308;DHT22;17114;52.314;8.910;2023-12-14T08:39:59;3.60;99.90
30308;DHT22;17114;52.314;8.910;2023-12-14T08:42:26;3.60;99.90
30308;DHT22;17114;52.314;8.910;2023-12-14T08:44:53;3.60;99.90
30308;DHT22;17114;52.314;8.910;2023-12-14T08:47:19;3.70;99.90
30308;DHT22;17114;52.314;8.910;2023-12-14T08:49:46;3.60;99.90
30308;DHT22;17114;52.314;8.910;2023-12-14T08:52:13;3.70;99.90
30308;DHT22;17114;52.314;8.910;2023-12-14T08:54:41;3.70;99.90
30308;DHT22;17114;52.314;8.910;2023-12-14T08:57:11;3.70;99.90
30308;DHT22;17114;52.314;8.910;2023-12-14T08:59:38;3.70;99.90
30308;DHT22;17114;52.314;8.910;2023-12-14T09:02:09;3.70;99.90
30308;DHT22;17114;52.314;8.910;2023-12-14T09:04:36;3.80;99.90
30308;DHT22;17114;52.314;8.910;2023-12-14T09:07:03;3.70;99.90
30308;DHT22;17114;52.314;8.910;2023-12-14T09:09:30;3.70;99.90
30308;DHT22;17114;52.314;8.910;2023-12-14T09:11:59;3.90;99.90
30308;DHT22;17114;52.314;8.910;2023-12-14T09:14:26;3.70;99.90
30308;DHT22;17114;52.314;8.910;2023-12-14T09:16:53;3.80;99.90
30308;DHT22;17114;52.314;8.910;2023-12-14T09:19:20;3.90;99.90
30308;DHT22;17114;52.314;8.910;2023-12-14T09:21:47;3.70;99.90
30308;DHT22;17114;52.314;8.910;2023-12-14T09:24:14;3.80;99.90
30308;DHT22;17114;52.314;8.910;2023-12-14T09:26:41;3.80;99.90
30308;DHT22;17114;52.314;8.910;2023-12-14T09:29:08;3.70;99.90
30308;DHT22;17114;52.314;8.910;2023-12-14T09:31:35;3.70;99.90
30308;DHT22;17114;52.314;8.910;2023-12-14T09:34:03;3.70;99.90
30308;DHT22;17114;52.314;8.910;2023-12-14T09:36:31;3.80;99.90
30308;DHT22;17114;52.314;8.910;2023-12-14T09:38:58;3.80;99.90
30308;DHT22;17114;52.314;8.910;2023-12-14T09:41:25;3.70;99.90
30308;DHT22;17114;52.314;8.910;2023-12-14T09:43:52;3.90;99.90
30308;DHT22;17114;52.314;8.910;2023-12-14T09:46:21;3.80;99.90
30308;DHT22;17114;52.314;8.910;2023-12-14T09:48:50;3.80;99.90
30308;DHT22;17114;52.314;8.910;2023-12-14T09:51:17;3.90;99.90
30308;DHT22;17114;52.314;8.910;2023-12-14T09:53:45;3.90;99.90
30308;DHT22;17114;52.314;8.910;2023-12-14T09:56:12;3.90;99.90
30308;DHT22;17114;52.314;8.910;2023-12-14T09:58:39;4.00;99.90
30308;DHT22;17114;52.314;8.910;2023-12-14T10:01:35;4.00;99.90
30308;DHT22;17114;52.314;8.910;2023-12-14T10:06:35;4.10;99.90
30308;DHT22;17114;52.314;8.910;2023-12-14T10:09:02;4.10;99.90
30308;DHT22;17114;52.314;8.910;2023-12-14T10:11:30;4.10;99.90
30308;DHT22;17114;52.314;8.910;2023-12-14T10:13:57;4.10;99.90
30308;DHT22;17114;52.314;8.910;2023-12-14T10:16:32;4.10;99.90
30308;DHT22;17114;52.314;8.910;2023-12-14T10:18:59;4.00;99.90
30308;DHT22;17114;52.314;8.910;2023-12-14T10:21:28;4.00;99.90
30308;DHT22;17114;52.314;8.910;2023-12-14T10:23:56;4.00;99.90
30308;DHT22;17114;52.314;8.910;2023-12-14T10:26:24;4.00;99.90
30308;DHT22;17114;52.314;8.910;2023-12-14T10:28:52;4.00;99.90
30308;DHT22;17114;52.314;8.910;2023-12-14T10:31:20;4.00;99.90
30308;DHT22;17114;52.314;8.910;2023-12-14T10:33:48;4.00;99.90
30308;DHT22;17114;52.314;8.910;2023-12-14T10:36:18;4.10;99.90
30308;DHT22;17114;52.314;8.910;2023-12-14T10:38:48;4.10;99.90
30308;DHT22;17114;52.314;8.910;2023-12-14T10:41:17;4.10;99.90
30308;DHT22;17114;52.314;8.910;2023-12-14T10:43:47;4.20;99.90
30308;DHT22;17114;52.314;8.910;2023-12-14T10:46:20;4.30;99.90
30308;DHT22;17114;52.314;8.910;2023-12-14T10:48:49;4.40;99.90
30308;DHT22;17114;52.314;8.910;2023-12-14T10:51:19;4.50;99.90
30308;DHT22;17114;52.314;8.910;2023-12-14T10:53:47;4.30;99.90
30308;DHT22;17114;52.314;8.910;2023-12-14T10:56:16;4.40;99.90
30308;DHT22;17114;52.314;8.910;2023-12-14T10:58:52;4.50;99.90
30308;DHT22;17114;52.314;8.910;2023-12-14T11:01:21;4.50;99.90
30308;DHT22;17114;52.314;8.910;2023-12-14T11:03:53;4.50;99.90
30308;DHT22;17114;52.314;8.910;2023-12-14T11:06:31;4.60;99.90
30308;DHT22;17114;52.314;8.910;2023-12-14T11:09:06;4.70;99.90
30308;DHT22;17114;52.314;8.910;2023-12-14T11:12:00;4.70;99.90
30308;DHT22;17114;52.314;8.910;2023-12-14T11:14:27;4.70;99.90
30308;DHT22;17114;52.314;8.910;2023-12-14T11:16:56;4.70;99.90
30308;DHT22;17114;52.314;8.910;2023-12-14T11:24:35;4.80;99.90
30308;DHT22;17114;52.314;8.910;2023-12-14T11:27:08;4.80;99.90
30308;DHT22;17114;52.314;8.910;2023-12-14T11:29:39;4.90;99.90
30308;DHT22;17114;52.314;8.910;2023-12-14T11:32:08;4.90;99.90
30308;DHT22;17114;52.314;8.910;2023-12-14T11:34:36;4.90;99.90
30308;DHT22;17114;52.314;8.910;2023-12-14T11:37:05;5.10;99.90
30308;DHT22;17114;52.314;8.910;2023-12-14T11:39:32;5.10;99.90
30308;DHT22;17114;52.314;8.910;2023-12-14T11:42:04;5.20;99.90
30308;DHT22;17114;52.314;8.910;2023-12-14T11:44:31;5.20;99.90
30308;DHT22;17114;52.314;8.910;2023-12-14T11:46:58;5.20;99.90
30308;DHT22;17114;52.314;8.910;2023-12-14T11:49:26;5.30;99.90
30308;DHT22;17114;52.314;8.910;2023-12-14T11:51:57;5.40;99.90
30308;DHT22;17114;52.314;8.910;2023-12-14T11:54:24;5.40;99.90
30308;DHT22;17114;52.314;8.910;2023-12-14T11:56:51;5.40;99.90
30308;DHT22;17114;52.314;8.910;2023-12-14T11:59:19;5.40;99.90
30308;DHT22;17114;52.314;8.910;2023-12-14T12:02:01;5.40;99.90
30308;DHT22;17114;52.314;8.910;2023-12-14T12:04:28;5.50;99.90
30308;DHT22;17114;52.314;8.910;2023-12-14T12:07:03;5.40;99.90
30308;DHT22;17114;52.314;8.910;2023-12-14T12:12:00;5.50;99.90
30308;DHT22;17114;52.314;8.910;2023-12-14T12:14:28;5.60;99.90
30308;DHT22;17114;52.314;8.910;2023-12-14T12:16:55;5.50;99.90
30308;DHT22;17114;52.314;8.910;2023-12-14T12:19:22;5.50;99.90
30308;DHT22;17114;52.314;8.910;2023-12-14T12:21:49;5.40;99.90
30308;DHT22;17114;52.314;8.910;2023-12-14T12:24:16;5.40;99.90
30308;DHT22;17114;52.314;8.910;2023-12-14T12:26:53;5.40;99.90
30308;DHT22;17114;52.314;8.910;2023-12-14T12:29:21;5.40;99.90
30308;DHT22;17114;52.314;8.910;2023-12-14T12:31:49;5.50;99.90
30308;DHT22;17114;52.314;8.910;2023-12-14T12:34:16;5.50;99.90
30308;DHT22;17114;52.314;8.910;2023-12-14T12:36:43;5.40;99.90
30308;DHT22;17114;52.314;8.910;2023-12-14T12:39:10;5.50;99.90
30308;DHT22;17114;52.314;8.910;2023-12-14T12:41:37;5.40;99.90
30308;DHT22;17114;52.314;8.910;2023-12-14T12:44:08;5.50;99.90
30308;DHT22;17114;52.314;8.910;2023-12-14T12:46:36;5.40;99.90
30308;DHT22;17114;52.314;8.910;2023-12-14T12:49:04;5.40;99.90
30308;DHT22;17114;52.314;8.910;2023-12-14T12:51:32;5.40;99.90
30308;DHT22;17114;52.314;8.910;2023-12-14T12:53:59;5.40;99.90
30308;DHT22;17114;52.314;8.910;2023-12-14T12:56:38;5.40;99.90
30308;DHT22;17114;52.314;8.910;2023-12-14T12:59:06;5.30;99.90
30308;DHT22;17114;52.314;8.910;2023-12-14T13:01:36;5.20;99.90
30308;DHT22;17114;52.314;8.910;2023-12-14T13:04:03;5.20;99.90
30308;DHT22;17114;52.314;8.910;2023-12-14T13:06:31;5.20;99.90
30308;DHT22;17114;52.314;8.910;2023-12-14T13:08:58;5.10;99.90
30308;DHT22;17114;52.314;8.910;2023-12-14T13:11:26;5.10;99.90
30308;DHT22;17114;52.314;8.910;2023-12-14T13:13:54;5.20;99.90
30308;DHT22;17114;52.314;8.910;2023-12-14T13:16:20;5.10;99.90
30308;DHT22;17114;52.314;8.910;2023-12-14T13:18:47;5.20;99.90
30308;DHT22;17114;52.314;8.910;2023-12-14T13:21:14;5.10;99.90
30308;DHT22;17114;52.314;8.910;2023-12-14T13:23:41;5.10;99.90
30308;DHT22;17114;52.314;8.910;2023-12-14T13:26:09;5.10;99.90
30308;DHT22;17114;52.314;8.910;2023-12-14T13:28:36;5.10;99.90
30308;DHT22;17114;52.314;8.910;2023-12-14T13:31:03;5.10;99.90
30308;DHT22;17114;52.314;8.910;2023-12-14T13:33:30;5.00;99.90
30308;DHT22;17114;52.314;8.910;2023-12-14T13:35:57;5.00;99.90
30308;DHT22;17114;52.314;8.910;2023-12-14T13:38:25;5.00;99.90
30308;DHT22;17114;52.314;8.910;2023-12-14T13:40:52;5.10;99.90
30308;DHT22;17114;52.314;8.910;2023-12-14T13:43:19;5.00;99.90
30308;DHT22;17114;52.314;8.910;2023-12-14T13:45:46;5.00;99.90
30308;DHT22;17114;52.314;8.910;2023-12-14T13:48:24;5.00;99.90
30308;DHT22;17114;52.314;8.910;2023-12-14T13:50:52;5.10;99.90
30308;DHT22;17114;52.314;8.910;2023-12-14T13:53:19;5.10;99.90
30308;DHT22;17114;52.314;8.910;2023-12-14T13:55:47;5.00;99.90
30308;DHT22;17114;52.314;8.910;2023-12-14T13:58:15;5.00;99.90
30308;DHT22;17114;52.314;8.910;2023-12-14T14:00:46;5.20;99.90
30308;DHT22;17114;52.314;8.910;2023-12-14T14:03:13;5.00;99.90
30308;DHT22;17114;52.314;8.910;2023-12-14T14:05:40;5.10;99.90
30308;DHT22;17114;52.314;8.910;2023-12-14T14:08:07;5.20;99.90
30308;DHT22;17114;52.314;8.910;2023-12-14T14:10:42;5.10;99.90
30308;DHT22;17114;52.314;8.910;2023-12-14T14:13:09;5.10;99.90
30308;DHT22;17114;52.314;8.910;2023-12-14T14:15:36;5.20;99.90
30308;DHT22;17114;52.314;8.910;2023-12-14T14:18:03;5.10;99.90
30308;DHT22;17114;52.314;8.910;2023-12-14T14:20:30;5.00;99.90
30308;DHT22;17114;52.314;8.910;2023-12-14T14:22:57;5.10;99.90
30308;DHT22;17114;52.314;8.910;2023-12-14T14:25:26;5.00;99.90
30308;DHT22;17114;52.314;8.910;2023-12-14T14:27:53;4.90;99.90
30308;DHT22;17114;52.314;8.910;2023-12-14T14:30:20;4.90;99.90
30308;DHT22;17114;52.314;8.910;2023-12-14T14:32:47;4.90;99.90
30308;DHT22;17114;52.314;8.910;2023-12-14T14:35:14;4.90;99.90
30308;DHT22;17114;52.314;8.910;2023-12-14T14:37:42;4.90;99.90
30308;DHT22;17114;52.314;8.910;2023-12-14T14:40:13;4.90;99.90
30308;DHT22;17114;52.314;8.910;2023-12-14T14:42:41;4.90;99.90
30308;DHT22;17114;52.314;8.910;2023-12-14T14:45:08;4.80;99.90
30308;DHT22;17114;52.314;8.910;2023-12-14T14:47:36;4.80;99.90
30308;DHT22;17114;52.314;8.910;2023-12-14T14:50:04;4.80;99.90
30308;DHT22;17114;52.314;8.910;2023-12-14T14:52:34;4.80;99.90
30308;DHT22;17114;52.314;8.910;2023-12-14T14:55:01;4.80;99.90
30308;DHT22;17114;52.314;8.910;2023-12-14T14:57:28;4.70;99.90
30308;DHT22;17114;52.314;8.910;2023-12-14T14:59:55;4.70;99.90
30308;DHT22;17114;52.314;8.910;2023-12-14T15:02:22;4.80;99.90
30308;DHT22;17114;52.314;8.910;2023-12-14T15:04:50;4.70;99.90
30308;DHT22;17114;52.314;8.910;2023-12-14T15:07:17;4.70;99.90
30308;DHT22;17114;52.314;8.910;2023-12-14T15:09:45;4.60;99.90
30308;DHT22;17114;52.314;8.910;2023-12-14T15:12:11;4.60;99.90
30308;DHT22;17114;52.314;8.910;2023-12-14T15:14:38;4.50;99.90
30308;DHT22;17114;52.314;8.910;2023-12-14T15:17:05;4.60;99.90
30308;DHT22;17114;52.314;8.910;2023-12-14T15:19:32;4.40;99.90
30308;DHT22;17114;52.314;8.910;2023-12-14T15:21:59;4.40;99.90
30308;DHT22;17114;52.314;8.910;2023-12-14T15:24:26;4.30;99.90
30308;DHT22;17114;52.314;8.910;2023-12-14T15:26:53;4.30;99.90
30308;DHT22;17114;52.314;8.910;2023-12-14T15:29:20;4.50;99.90
30308;DHT22;17114;52.314;8.910;2023-12-14T15:31:48;4.30;99.90
30308;DHT22;17114;52.314;8.910;2023-12-14T15:34:16;4.40;99.90
30308;DHT22;17114;52.314;8.910;2023-12-14T15:36:45;4.30;99.90
30308;DHT22;17114;52.314;8.910;2023-12-14T15:39:12;4.30;99.90
30308;DHT22;17114;52.314;8.910;2023-12-14T15:41:39;4.20;99.90
30308;DHT22;17114;52.314;8.910;2023-12-14T15:44:06;4.10;99.90
30308;DHT22;17114;52.314;8.910;2023-12-14T15:46:33;4.20;99.90
30308;DHT22;17114;52.314;8.910;2023-12-14T15:49:00;4.20;99.90
30308;DHT22;17114;52.314;8.910;2023-12-14T15:51:26;4.10;99.90
30308;DHT22;17114;52.314;8.910;2023-12-14T15:53:53;4.00;99.90
30308;DHT22;17114;52.314;8.910;2023-12-14T15:56:22;4.00;99.90
30308;DHT22;17114;52.314;8.910;2023-12-14T15:58:50;4.00;99.90